AKDT,Max TemperatureF,Mean TemperatureF,Min TemperatureF,Max Dew PointF,MeanDew PointF,Min DewpointF,Max Humidity, Mean Humidity, Min Humidity, Max Sea Level PressureIn, Mean Sea Level PressureIn, Min Sea Level PressureIn, Max VisibilityMiles, Mean VisibilityMiles, Min VisibilityMiles, Max Wind SpeedMPH, Mean Wind SpeedMPH, Max Gust SpeedMPH,PrecipitationIn, CloudCover, Events, WindDirDegrees
2012-10-1,53,48,42,41,38,34,81,70,46,30.14,30.08,30.02,10,10,10,25,14,34,0.00,5,,152
2012-10-2,55,50,44,45,41,36,82,74,62,30.01,29.86,29.77,10,10,10,37,27,44,0.00,1,,145
2012-10-3,59,54,48,48,43,39,82,73,62,29.89,29.62,29.41,10,10,10,39,25,46,0.00,3,,137
2012-10-4,55,50,44,45,38,34,82,64,32,29.96,29.73,29.47,10,10,10,30,20,37,0.00,0,,150
2012-10-5,51,44,37,37,35,30,81,67,38,30.11,30.03,29.95,10,10,10,28,17,33,0.00,0,,155
2012-10-6,53,43,33,46,36,27,87,72,47,30.18,30.10,29.91,10,10,3,21,9,28,0.20,4,,137
2012-10-7,55,53,51,50,47,43,88,79,67,30.05,29.96,29.89,10,10,10,45,31,54,0.05,2,,147
2012-10-8,57,50,42,45,42,37,87,71,53,30.12,30.10,30.07,10,10,10,25,13,30,0.28,0,,135
2012-10-9,68,52,35,45,39,34,93,67,30,30.12,30.03,29.92,10,10,8,18,8,23,0.08,0,,123
2012-10-10,59,52,46,45,40,36,76,58,40,29.92,29.79,29.67,10,10,10,17,6,22,0.04,0,,41
2012-10-11,53,48,41,43,41,36,87,74,58,29.68,29.52,29.33,10,10,10,13,7,,0.03,4,,311
2012-10-12,46,38,28,39,34,21,93,79,66,29.33,29.19,29.12,10,10,10,22,10,25,0.17,3,,35
2012-10-13,34,31,28,27,21,18,75,66,42,29.20,29.17,29.13,10,10,10,17,10,20,0.75,7,,44
2012-10-14,37,34,30,30,27,21,93,79,52,29.27,29.18,29.13,10,6,0,30,20,38,0.01,7,,350
2012-10-15,35,32,30,27,21,16,86,63,42,29.63,29.45,29.27,10,8,1,36,27,44,0.00,8,,328
2012-10-16,33,32,30,21,17,12,69,56,42,29.89,29.74,29.64,10,10,5,36,26,41,0.00,6,,324
2012-10-17,32,30,28,27,20,18,86,66,42,30.02,29.98,29.89,10,8,2,32,27,39,0.00,8,,323
2012-10-18,35,32,28,25,22,18,86,66,52,30.14,30.07,30.00,10,9,2,25,20,33,0.00,8,,331
2012-10-19,36,33,30,27,25,21,75,69,52,30.40,30.29,30.14,10,10,10,25,19,28,0.01,8,,323
2012-10-20,39,32,24,27,25,19,93,72,55,30.51,30.48,30.41,10,10,10,17,8,,0.03,5,,347
2012-10-21,37,29,21,28,24,19,93,80,52,30.49,30.38,30.31,10,10,10,8,3,,0.01,3,,81
2012-10-22,37,30,24,36,27,16,93,82,60,30.38,30.36,30.34,10,9,2,9,3,,0.03,7,,55
2012-10-23,30,22,15,28,19,10,93,77,56,30.35,30.28,30.22,10,10,10,21,14,25,0.02,1,,51
2012-10-24,33,22,12,25,17,5,100,82,65,30.31,30.27,30.25,10,9,2,15,12,,0.06,3,,43
2012-10-25,21,,21,19,19,19,93,93,93,30.31,30.31,30.31,10,10,10,64,42,,0.00,0,,40
2012-10-26,39,32,26,32,29,16,100,82,55,30.27,30.16,30.05,10,10,4,64,22,,0.01,0,,49
2012-10-27,37,30,24,30,26,19,100,85,61,30.05,30.00,29.97,10,10,10,16,12,,0.16,0,,45
2012-10-28,36,28,19,28,22,12,93,82,58,30.11,30.05,30.00,10,10,10,12,8,,0.04,0,,48
2012-10-29,37,28,19,34,29,18,100,88,72,30.14,30.12,30.10,10,10,0,14,7,18,0.16,7,,232
2012-10-30,33,27,21,30,19,10,100,71,51,30.19,30.13,29.98,10,9,1,24,10,28,0.12,8,,1
2012-10-31,28,22,15,21,13,9,93,61,43,29.97,29.78,29.64,10,9,0,25,14,31,3.09,7,,15